createdAt,value
2022-11-23T00:00:22.461Z,7.93
2022-11-23T00:02:56.573Z,7.20
2022-11-23T00:05:29.826Z,6.47
2022-11-23T00:08:02.208Z,7.77
2022-11-23T00:10:34.104Z,6.00
2022-11-23T00:13:08.430Z,6.10
2022-11-23T00:15:41.060Z,6.70
2022-11-23T00:18:12.329Z,6.13
2022-11-23T00:20:44.470Z,6.10
2022-11-23T00:23:15.759Z,5.70
2022-11-23T00:25:47.076Z,5.90
2022-11-23T00:28:18.466Z,6.00
2022-11-23T00:30:50.528Z,6.90
2022-11-23T00:33:21.959Z,6.27
2022-11-23T00:36:04.992Z,6.97
2022-11-23T00:38:37.224Z,5.60
2022-11-23T00:41:11.601Z,5.47
2022-11-23T00:43:43.389Z,6.17
2022-11-23T00:46:17.611Z,6.10
2022-11-23T00:48:51.195Z,6.07
2022-11-23T00:51:25.097Z,5.67
2022-11-23T00:53:57.194Z,6.33
2022-11-23T00:56:29.933Z,5.37
2022-11-23T00:59:02.524Z,6.33
2022-11-23T01:01:36.955Z,6.20
2022-11-23T01:04:08.959Z,6.37
2022-11-23T01:06:40.631Z,6.30
2022-11-23T01:09:14.655Z,6.30
2022-11-23T01:11:46.004Z,5.67
2022-11-23T01:14:17.356Z,6.00
2022-11-23T01:16:48.767Z,6.00
2022-11-23T01:19:21.368Z,5.17
2022-11-23T01:21:52.960Z,5.70
2022-11-23T01:24:24.231Z,5.93
2022-11-23T01:26:55.948Z,5.13
2022-11-23T01:29:27.229Z,5.57
2022-11-23T01:31:58.508Z,4.63
2022-11-23T01:34:29.778Z,5.03
2022-11-23T01:37:01.090Z,4.80
2022-11-23T01:39:32.640Z,5.33
2022-11-23T01:42:08.032Z,6.07
2022-11-23T01:44:41.654Z,5.63
2022-11-23T01:47:12.955Z,5.37
2022-11-23T01:49:48.300Z,5.10
2022-11-23T01:52:24.942Z,5.03
2022-11-23T01:55:01.548Z,4.73
2022-11-23T01:57:41.942Z,5.20
2022-11-23T02:00:13.638Z,5.07
2022-11-23T02:02:56.765Z,5.10
2022-11-23T02:05:33.588Z,5.37
2022-11-23T02:08:06.247Z,4.57
2022-11-23T02:10:37.931Z,4.40
2022-11-23T02:13:12.506Z,4.90
2022-11-23T02:15:43.877Z,5.10
2022-11-23T02:18:19.305Z,5.07
2022-11-23T02:20:51.791Z,5.35
2022-11-23T02:23:42.001Z,5.50
2022-11-23T02:26:17.973Z,5.20
2022-11-23T02:28:58.949Z,4.82
2022-11-23T02:31:30.259Z,5.03
2022-11-23T02:34:01.993Z,4.30
2022-11-23T02:36:46.433Z,4.63
2022-11-23T02:39:37.563Z,4.40
2022-11-23T02:42:08.827Z,5.33
2022-11-23T02:44:59.308Z,4.17
2022-11-23T02:47:30.839Z,4.37
2022-11-23T02:50:02.134Z,4.37
2022-11-23T02:52:33.372Z,5.10
2022-11-23T02:55:04.900Z,4.60
2022-11-23T02:57:36.475Z,4.13
2022-11-23T03:00:08.500Z,4.70
2022-11-23T03:02:39.804Z,4.57
2022-11-23T03:05:11.180Z,4.77
2022-11-23T03:07:43.000Z,4.80
2022-11-23T03:10:14.443Z,4.27
2022-11-23T03:12:45.695Z,3.83
2022-11-23T03:15:17.110Z,4.10
2022-11-23T03:17:48.429Z,4.83
2022-11-23T03:20:20.523Z,3.73
2022-11-23T03:22:51.896Z,3.53
2022-11-23T03:25:23.191Z,3.53
2022-11-23T03:27:54.470Z,4.10
2022-11-23T03:30:25.760Z,3.43
2022-11-23T03:32:57.717Z,4.43
2022-11-23T03:35:29.015Z,3.90
2022-11-23T03:38:00.308Z,3.63
2022-11-23T03:40:31.625Z,4.47
2022-11-23T03:43:03.641Z,3.90
2022-11-23T03:45:34.897Z,3.57
2022-11-23T03:48:06.392Z,3.80
2022-11-23T03:50:37.757Z,3.77
2022-11-23T03:53:09.145Z,2.80
2022-11-23T03:55:40.577Z,3.40
2022-11-23T03:58:11.851Z,2.70
2022-11-23T04:00:43.252Z,3.20
2022-11-23T04:03:14.593Z,3.40
2022-11-23T04:05:46.032Z,3.10
2022-11-23T04:08:17.381Z,3.80
2022-11-23T04:10:48.678Z,4.00
2022-11-23T04:13:19.928Z,3.47
2022-11-23T04:15:51.304Z,3.37
2022-11-23T04:18:22.637Z,3.20
2022-11-23T04:20:53.936Z,2.90
2022-11-23T04:23:25.195Z,3.23
2022-11-23T04:25:56.522Z,3.80
2022-11-23T04:28:27.780Z,3.60
2022-11-23T04:30:59.088Z,3.63
2022-11-23T04:33:31.612Z,3.87
2022-11-23T04:36:03.088Z,4.07
2022-11-23T04:38:34.641Z,3.07
2022-11-23T04:41:05.971Z,2.90
2022-11-23T04:43:37.219Z,3.97
2022-11-23T04:46:10.483Z,3.50
2022-11-23T04:48:41.721Z,3.30
2022-11-23T04:51:13.591Z,2.80
2022-11-23T04:53:44.930Z,3.20
2022-11-23T04:56:16.235Z,3.10
2022-11-23T04:58:47.778Z,3.50
2022-11-23T05:01:19.118Z,3.37
2022-11-23T05:03:50.419Z,3.40
2022-11-23T05:06:21.707Z,3.27
2022-11-23T05:08:52.967Z,3.50
2022-11-23T05:11:24.341Z,3.07
2022-11-23T05:13:55.734Z,3.07
2022-11-23T05:16:27.013Z,3.07
2022-11-23T05:18:58.268Z,3.00
2022-11-23T05:21:29.537Z,2.53
2022-11-23T05:24:00.890Z,3.33
2022-11-23T05:26:32.148Z,3.00
2022-11-23T05:29:03.432Z,2.83
2022-11-23T05:31:34.706Z,2.67
2022-11-23T05:34:05.974Z,2.60
2022-11-23T05:36:41.897Z,2.50
2022-11-23T05:41:44.791Z,2.43
2022-11-23T05:44:16.056Z,2.40
2022-11-23T05:46:47.327Z,3.60
2022-11-23T05:49:18.618Z,2.77
2022-11-23T05:51:49.877Z,2.30
2022-11-23T05:54:21.306Z,3.00
2022-11-23T05:56:52.589Z,2.90
2022-11-23T05:59:23.912Z,4.93
2022-11-23T06:01:55.187Z,3.83
2022-11-23T06:04:26.520Z,3.73
2022-11-23T06:07:00.834Z,2.37
2022-11-23T06:09:32.515Z,2.80
2022-11-23T06:12:04.173Z,2.67
2022-11-23T06:14:35.513Z,4.23
2022-11-23T06:17:06.802Z,4.20
2022-11-23T06:19:38.115Z,2.70
2022-11-23T06:22:09.433Z,3.93
2022-11-23T06:24:41.287Z,3.20
2022-11-23T06:27:18.146Z,2.90
2022-11-23T06:29:49.849Z,3.10
2022-11-23T06:32:21.123Z,2.50
2022-11-23T06:34:53.875Z,2.77
2022-11-23T06:37:26.912Z,2.80
2022-11-23T06:39:58.197Z,2.43
2022-11-23T06:42:38.768Z,2.60
2022-11-23T06:45:10.811Z,2.60
2022-11-23T06:47:42.102Z,2.70
2022-11-23T06:50:14.560Z,2.27
2022-11-23T06:52:45.823Z,2.87
2022-11-23T06:55:17.159Z,2.70
2022-11-23T06:57:48.475Z,2.57
2022-11-23T07:00:20.051Z,2.50
2022-11-23T07:02:52.925Z,2.50
2022-11-23T07:05:24.669Z,4.40
2022-11-23T07:07:56.842Z,4.27
2022-11-23T07:10:28.254Z,2.87
2022-11-23T07:13:06.654Z,2.63
2022-11-23T07:15:39.255Z,2.60
2022-11-23T07:18:11.917Z,2.60
2022-11-23T07:20:43.289Z,2.73
2022-11-23T07:23:14.815Z,2.93
2022-11-23T07:25:46.329Z,2.80
2022-11-23T07:28:18.265Z,2.70
2022-11-23T07:30:51.472Z,2.73
2022-11-23T07:33:22.749Z,2.30
2022-11-23T07:35:54.021Z,3.50
2022-11-23T07:38:25.280Z,2.93
2022-11-23T07:40:58.836Z,2.67
2022-11-23T07:43:30.601Z,2.73
2022-11-23T07:46:01.859Z,3.17
2022-11-23T07:48:36.384Z,3.17
2022-11-23T07:51:08.168Z,2.53
2022-11-23T07:53:39.423Z,3.50
2022-11-23T07:56:11.037Z,2.57
2022-11-23T07:58:42.324Z,1.90
2022-11-23T08:01:18.351Z,2.20
2022-11-23T08:03:49.798Z,2.80
2022-11-23T08:06:21.135Z,2.67
2022-11-23T08:08:52.410Z,4.13
2022-11-23T08:11:23.675Z,8.93
2022-11-23T08:13:54.956Z,7.97
2022-11-23T08:16:26.319Z,5.80
2022-11-23T08:18:57.597Z,3.97
2022-11-23T08:21:28.947Z,3.00
2022-11-23T08:24:00.207Z,2.80
2022-11-23T08:26:31.510Z,3.00
2022-11-23T08:29:03.270Z,2.70
2022-11-23T08:31:34.683Z,3.43
2022-11-23T08:34:05.993Z,2.40
2022-11-23T08:36:37.433Z,2.30
2022-11-23T08:39:11.021Z,2.00
2022-11-23T08:41:42.311Z,2.47
2022-11-23T08:44:13.689Z,2.33
2022-11-23T08:46:44.958Z,2.30
2022-11-23T08:49:16.220Z,2.37
2022-11-23T08:51:50.219Z,2.63
2022-11-23T08:54:24.104Z,2.13
2022-11-23T08:56:55.465Z,2.00
2022-11-23T08:59:26.721Z,3.33
2022-11-23T09:01:57.991Z,1.93
2022-11-23T09:04:30.849Z,1.80
2022-11-23T09:07:03.146Z,1.80
2022-11-23T09:09:34.473Z,2.30
2022-11-23T09:12:06.151Z,2.00
2022-11-23T09:14:37.502Z,2.10
2022-11-23T09:17:08.819Z,2.20
2022-11-23T09:19:40.465Z,2.30
2022-11-23T09:22:11.733Z,1.77
2022-11-23T09:24:43.102Z,2.10
2022-11-23T09:27:14.441Z,1.80
2022-11-23T09:29:45.776Z,2.03
2022-11-23T09:32:17.717Z,3.00
2022-11-23T09:34:48.987Z,2.10
2022-11-23T09:37:20.445Z,2.17
2022-11-23T09:39:51.738Z,2.30
2022-11-23T09:42:34.903Z,2.40
2022-11-23T09:45:26.090Z,2.30
2022-11-23T09:48:03.091Z,2.07
2022-11-23T09:50:46.654Z,2.20
2022-11-23T09:53:25.479Z,1.97
2022-11-23T09:55:57.776Z,3.27
2022-11-23T09:58:36.290Z,1.97
2022-11-23T10:01:12.779Z,2.20
2022-11-23T10:03:48.882Z,1.70
2022-11-23T10:06:34.417Z,1.70
2022-11-23T10:09:42.973Z,2.20
2022-11-23T10:12:58.704Z,2.67
2022-11-23T10:15:38.884Z,2.13
2022-11-23T10:18:38.746Z,1.90
2022-11-23T10:21:24.032Z,1.70
2022-11-23T10:24:00.712Z,1.87
2022-11-23T10:26:36.513Z,1.80
2022-11-23T10:29:17.310Z,1.75
2022-11-23T10:31:55.498Z,1.87
2022-11-23T10:34:51.020Z,2.10
2022-11-23T10:37:22.472Z,1.80
2022-11-23T10:39:53.824Z,2.80
2022-11-23T10:42:33.795Z,2.00
2022-11-23T10:45:05.808Z,2.03
2022-11-23T10:47:40.828Z,1.93
2022-11-23T10:50:20.921Z,1.97
2022-11-23T10:53:19.925Z,2.33
2022-11-23T10:55:54.950Z,2.17
2022-11-23T10:58:35.031Z,2.40
2022-11-23T11:01:20.162Z,2.13
2022-11-23T11:03:53.468Z,2.00
2022-11-23T11:06:27.649Z,1.60
2022-11-23T11:09:03.744Z,2.20
2022-11-23T11:11:39.633Z,1.57
2022-11-23T11:14:19.570Z,1.40
2022-11-23T11:16:57.924Z,2.33
2022-11-23T11:19:34.601Z,1.40
2022-11-23T11:22:35.677Z,1.90
2022-11-23T11:25:07.816Z,1.70
2022-11-23T11:27:51.433Z,1.90
2022-11-23T11:30:24.786Z,2.23
2022-11-23T11:33:09.077Z,2.10
2022-11-23T11:35:45.993Z,1.77
2022-11-23T11:38:37.655Z,1.77
2022-11-23T11:41:11.908Z,2.10
2022-11-23T11:43:50.287Z,2.03
2022-11-23T11:46:31.969Z,1.83
2022-11-23T11:49:07.507Z,2.20
2022-11-23T11:51:47.369Z,2.05
2022-11-23T11:54:28.071Z,2.37
2022-11-23T11:57:16.891Z,1.30
2022-11-23T11:59:53.066Z,1.70
2022-11-23T12:02:31.300Z,1.98
2022-11-23T12:05:24.626Z,2.20
2022-11-23T12:08:15.856Z,1.70
2022-11-23T12:10:54.115Z,2.00
2022-11-23T12:13:38.009Z,1.63
2022-11-23T12:16:21.244Z,1.73
2022-11-23T12:19:17.689Z,1.53
2022-11-23T12:22:02.965Z,1.73
2022-11-23T12:25:11.412Z,1.80
2022-11-23T12:27:56.433Z,1.63
2022-11-23T12:30:38.016Z,1.33
2022-11-23T12:33:27.328Z,1.53
2022-11-23T12:36:29.691Z,1.30
2022-11-23T12:39:39.808Z,1.27
2022-11-23T12:42:27.538Z,1.47
2022-11-23T12:45:20.020Z,1.73
2022-11-23T12:48:03.324Z,1.77
2022-11-23T12:50:50.830Z,1.70
2022-11-23T12:53:51.100Z,2.00
2022-11-23T12:56:45.318Z,1.83
2022-11-23T12:59:18.640Z,1.77
2022-11-23T13:02:00.290Z,1.40
2022-11-23T13:04:47.950Z,1.67
2022-11-23T13:07:49.292Z,1.50
2022-11-23T13:10:27.216Z,1.43
2022-11-23T13:13:35.361Z,1.57
2022-11-23T13:16:33.287Z,1.70
2022-11-23T13:19:23.304Z,1.90
2022-11-23T13:21:55.080Z,1.80
2022-11-23T13:24:35.776Z,1.40
2022-11-23T13:27:13.225Z,1.90
2022-11-23T13:29:50.697Z,2.20
2022-11-23T13:32:40.056Z,1.73
2022-11-23T13:35:17.361Z,2.20
2022-11-23T13:37:57.816Z,1.60
2022-11-23T13:40:34.298Z,1.57
2022-11-23T13:43:15.936Z,1.77
2022-11-23T13:46:32.103Z,1.20
2022-11-23T13:49:03.466Z,1.27
2022-11-23T13:51:35.425Z,1.60
2022-11-23T13:54:21.839Z,1.30
2022-11-23T13:57:01.580Z,1.42
2022-11-23T13:59:34.665Z,1.53
2022-11-23T14:02:09.294Z,1.20
2022-11-23T14:04:46.857Z,1.70
2022-11-23T14:07:43.084Z,1.33
2022-11-23T14:10:22.624Z,1.75
2022-11-23T14:13:19.128Z,1.40
2022-11-23T14:16:01.838Z,1.35
2022-11-23T14:18:52.375Z,1.30
2022-11-23T14:21:44.089Z,1.67
2022-11-23T14:24:39.934Z,1.40
2022-11-23T14:27:47.158Z,1.80
2022-11-23T14:30:24.439Z,1.30
2022-11-23T14:33:26.665Z,1.63
2022-11-23T14:36:19.860Z,2.20
2022-11-23T14:39:23.576Z,1.77
2022-11-23T14:41:59.852Z,2.03
2022-11-23T14:47:11.349Z,2.77
2022-11-23T14:49:50.877Z,2.17
2022-11-23T14:52:26.168Z,2.03
2022-11-23T14:55:00.028Z,1.60
2022-11-23T14:57:41.188Z,2.33
2022-11-23T15:00:29.362Z,2.33
2022-11-23T15:03:34.375Z,1.90
2022-11-23T15:06:10.481Z,2.23
2022-11-23T15:08:49.970Z,2.07
2022-11-23T15:11:26.224Z,1.70
2022-11-23T15:19:27.497Z,2.60
2022-11-23T15:21:59.817Z,2.50
2022-11-23T15:24:31.768Z,2.77
2022-11-23T15:27:10.795Z,3.53
2022-11-23T15:29:51.799Z,2.03
2022-11-23T15:32:31.308Z,1.83
2022-11-23T15:35:07.818Z,2.57
2022-11-23T15:37:47.665Z,2.65
2022-11-23T15:40:19.392Z,2.00
2022-11-23T15:42:51.343Z,2.93
2022-11-23T15:45:41.418Z,2.50
2022-11-23T15:48:33.468Z,2.80
2022-11-23T15:51:08.321Z,3.13
2022-11-23T15:53:50.205Z,2.10
2022-11-23T15:56:35.916Z,3.83
2022-11-23T15:59:22.483Z,2.77
2022-11-23T16:01:55.095Z,2.22
2022-11-23T16:04:42.194Z,2.80
2022-11-23T16:07:22.601Z,2.80
2022-11-23T16:10:16.343Z,3.23
2022-11-23T16:12:53.565Z,2.87
2022-11-23T16:15:37.444Z,2.40
2022-11-23T16:18:17.718Z,3.47
2022-11-23T16:20:55.237Z,2.80
2022-11-23T16:23:41.293Z,2.70
2022-11-23T16:26:13.892Z,2.75
2022-11-23T16:28:56.702Z,2.93
2022-11-23T16:31:41.520Z,2.93
2022-11-23T16:34:17.139Z,2.87
2022-11-23T16:36:48.988Z,2.58
2022-11-23T16:39:20.347Z,2.60
2022-11-23T16:41:52.325Z,2.60
2022-11-23T16:44:23.615Z,3.00
2022-11-23T16:46:54.939Z,2.70
2022-11-23T16:49:26.227Z,2.27
2022-11-23T16:51:57.689Z,2.30
2022-11-23T16:54:28.953Z,2.67
2022-11-23T16:57:00.342Z,2.20
2022-11-23T16:59:32.140Z,2.30
2022-11-23T17:02:03.587Z,2.37
2022-11-23T17:04:35.078Z,2.90
2022-11-23T17:07:06.597Z,2.23
2022-11-23T17:09:38.173Z,1.97
2022-11-23T17:12:14.959Z,2.60
2022-11-23T17:14:50.095Z,2.70
2022-11-23T17:17:22.393Z,2.10
2022-11-23T17:19:53.645Z,2.50
2022-11-23T17:22:24.984Z,2.60
2022-11-23T17:24:56.287Z,3.13
2022-11-23T17:27:30.404Z,2.83
2022-11-23T17:30:06.469Z,2.40
2022-11-23T17:32:37.872Z,2.80
2022-11-23T17:35:09.161Z,3.50
2022-11-23T17:37:40.749Z,2.47
2022-11-23T17:40:16.708Z,2.50
2022-11-23T17:42:48.219Z,3.00
2022-11-23T17:45:19.994Z,3.60
2022-11-23T17:47:51.291Z,3.70
2022-11-23T17:50:23.568Z,2.40
2022-11-23T17:52:54.820Z,2.50
2022-11-23T17:55:26.139Z,2.80
2022-11-23T17:57:57.426Z,2.70
2022-11-23T18:00:29.640Z,2.83
2022-11-23T18:03:04.056Z,3.00
2022-11-23T18:05:35.362Z,2.97
2022-11-23T18:08:06.622Z,2.73
2022-11-23T18:10:37.905Z,2.60
2022-11-23T18:13:09.228Z,3.57
2022-11-23T18:15:40.510Z,2.30
2022-11-23T18:18:12.151Z,3.10
2022-11-23T18:20:43.483Z,3.00
2022-11-23T18:23:14.765Z,2.60
2022-11-23T18:25:46.189Z,3.03
2022-11-23T18:28:18.683Z,2.87
2022-11-23T18:30:50.144Z,3.13
2022-11-23T18:33:22.178Z,2.80
2022-11-23T18:35:53.473Z,2.60
2022-11-23T18:38:24.783Z,2.43
2022-11-23T18:40:56.067Z,2.53
2022-11-23T18:43:27.703Z,2.40
2022-11-23T18:45:59.126Z,2.20
2022-11-23T18:48:30.466Z,3.03
2022-11-23T18:51:03.011Z,2.70
2022-11-23T18:53:34.323Z,2.97
2022-11-23T18:56:07.013Z,2.37
2022-11-23T18:58:41.865Z,2.93
2022-11-23T19:01:21.518Z,2.93
2022-11-23T19:03:53.365Z,2.40
2022-11-23T19:06:24.678Z,1.80
2022-11-23T19:08:58.952Z,2.33
2022-11-23T19:11:30.279Z,2.33
2022-11-23T19:14:02.209Z,2.60
2022-11-23T19:16:33.573Z,2.30
2022-11-23T19:19:06.952Z,2.50
2022-11-23T19:21:39.040Z,2.47
2022-11-23T19:24:10.388Z,2.40
2022-11-23T19:26:41.753Z,2.17
2022-11-23T19:29:13.672Z,2.67
2022-11-23T19:31:45.105Z,2.40
2022-11-23T19:34:16.382Z,1.90
2022-11-23T19:36:47.710Z,2.10
2022-11-23T19:39:19.004Z,1.93
2022-11-23T19:41:50.455Z,3.10
2022-11-23T19:44:21.801Z,3.47
2022-11-23T19:46:53.184Z,4.10
2022-11-23T19:49:25.572Z,3.40
2022-11-23T19:51:56.926Z,2.40
2022-11-23T19:54:28.258Z,2.40
2022-11-23T19:56:59.557Z,2.70
2022-11-23T19:59:31.371Z,2.67
2022-11-23T20:02:03.117Z,2.23
2022-11-23T20:04:34.637Z,2.73
2022-11-23T20:07:05.997Z,3.70
2022-11-23T20:09:38.036Z,3.33
2022-11-23T20:12:09.273Z,3.20
2022-11-23T20:14:40.548Z,2.80
2022-11-23T20:17:12.232Z,2.57
2022-11-23T20:19:43.495Z,2.57
2022-11-23T20:22:14.791Z,2.27
2022-11-23T20:24:46.081Z,3.20
2022-11-23T20:27:17.459Z,2.33
2022-11-23T20:29:48.718Z,2.13
2022-11-23T20:32:19.991Z,2.00
2022-11-23T20:34:51.277Z,2.47
2022-11-23T20:37:23.302Z,2.40
2022-11-23T20:39:54.710Z,3.17
2022-11-23T20:42:25.961Z,2.50
2022-11-23T20:44:57.262Z,2.27
2022-11-23T20:47:28.566Z,1.93
2022-11-23T20:50:00.101Z,2.63
2022-11-23T20:52:31.514Z,2.20
2022-11-23T20:55:02.784Z,3.07
2022-11-23T20:57:34.039Z,1.80
2022-11-23T21:00:06.143Z,2.33
2022-11-23T21:02:37.566Z,2.30
2022-11-23T21:05:09.135Z,2.43
2022-11-23T21:07:40.578Z,2.00
2022-11-23T21:10:32.409Z,1.70
2022-11-23T21:13:21.983Z,1.83
2022-11-23T21:15:53.304Z,2.37
2022-11-23T21:18:24.604Z,2.40
2022-11-23T21:20:56.312Z,2.27
2022-11-23T21:23:33.908Z,1.93
2022-11-23T21:26:06.079Z,2.37
2022-11-23T21:28:37.351Z,2.30
2022-11-23T21:31:09.792Z,1.70
2022-11-23T21:33:42.785Z,2.17
2022-11-23T21:36:14.329Z,2.30
2022-11-23T21:38:45.626Z,1.83
2022-11-23T21:41:18.035Z,2.20
2022-11-23T21:43:53.553Z,2.00
2022-11-23T21:46:25.247Z,2.13
2022-11-23T21:48:58.349Z,2.23
2022-11-23T21:51:30.817Z,2.10
2022-11-23T21:54:05.177Z,2.10
2022-11-23T21:56:36.676Z,2.27
2022-11-23T21:59:08.274Z,2.50
2022-11-23T22:01:40.631Z,1.90
2022-11-23T22:04:15.082Z,2.00
2022-11-23T22:06:46.516Z,2.30
2022-11-23T22:09:18.089Z,1.97
2022-11-23T22:11:49.332Z,2.07
2022-11-23T22:14:21.914Z,2.10
2022-11-23T22:16:54.272Z,2.00
2022-11-23T22:19:25.565Z,2.57
2022-11-23T22:21:56.815Z,1.90
2022-11-23T22:24:28.112Z,2.63
2022-11-23T22:26:59.523Z,2.27
2022-11-23T22:29:30.833Z,2.07
2022-11-23T22:32:02.174Z,2.43
2022-11-23T22:34:35.164Z,1.73
2022-11-23T22:37:10.571Z,2.07
2022-11-23T22:39:42.272Z,2.50
2022-11-23T22:42:14.953Z,1.77
2022-11-23T22:44:46.556Z,2.50
2022-11-23T22:47:18.005Z,2.47
2022-11-23T22:49:49.293Z,1.83
2022-11-23T22:52:20.641Z,2.13
2022-11-23T22:54:51.885Z,2.70
2022-11-23T22:57:23.136Z,2.67
2022-11-23T22:59:54.362Z,2.33
2022-11-23T23:02:25.808Z,2.07
2022-11-23T23:04:57.224Z,1.97
2022-11-23T23:07:31.191Z,1.87
2022-11-23T23:10:02.600Z,1.67
2022-11-23T23:12:33.864Z,2.20
2022-11-23T23:15:05.467Z,2.63
2022-11-23T23:17:36.815Z,2.73
2022-11-23T23:20:08.770Z,2.17
2022-11-23T23:22:40.041Z,2.13
2022-11-23T23:25:11.300Z,1.80
2022-11-23T23:27:42.556Z,1.97
2022-11-23T23:30:14.074Z,2.17
2022-11-23T23:32:45.695Z,1.93
2022-11-23T23:35:16.944Z,2.23
2022-11-23T23:37:51.517Z,2.30
2022-11-23T23:40:23.027Z,2.20
2022-11-23T23:42:54.693Z,2.27
2022-11-23T23:45:25.983Z,2.40
2022-11-23T23:47:58.805Z,2.57
2022-11-23T23:50:30.052Z,1.80
2022-11-23T23:53:01.361Z,2.90
2022-11-23T23:55:32.612Z,2.83
2022-11-23T23:58:03.961Z,2.33
